11 de agosto de 2022

Hora Código Clima Temp. Visibilidade Tecto Vento METAR/SPECI
18:25
V
25 °C 10 km+ - 040° 040° 13 kt METAR EHLW 111625Z AUTO 04013KT 360V080 9999 NCD 25/14 Q1021 BLU
17:55
V
26 °C 10 km+ - 040° 040° 12 kt METAR EHLW 111555Z AUTO 04012KT 360V120 9999 NCD 26/13 Q1021 BLU
17:25
V
27 °C 10 km+ - 040° 040° 11 kt METAR EHLW 111525Z AUTO 04011KT 350V090 9999 NCD 27/14 Q1022 BLU
16:55
V
27 °C 10 km+ - 030° 030° 12 kt METAR EHLW 111455Z AUTO 03012KT 350V050 9999 NCD 27/15 Q1022 BLU
16:25
V
27 °C 10 km+ - 040° 040° 12 kt METAR EHLW 111425Z AUTO 04012KT 350V070 9999 NCD 27/15 Q1022 BLU
15:55
V
28 °C 10 km+ - 030° 030° 11 kt METAR EHLW 111355Z AUTO 03011KT 350V080 9999 NCD 28/15 Q1022 BLU
14:55
V
29 °C 10 km+ - 060° 060° 8 kt METAR EHLW 111255Z AUTO 06008KT 320V130 9999 NCD 29/11 Q1022 BLU NOSIG
14:25
V
28 °C 10 km+ - 070° 070° 6 kt METAR EHLW 111225Z AUTO 07006KT 9999 NCD 28/12 Q1023 BLU NOSIG
13:55
V
28 °C 10 km+ - Var Var 6 kt METAR EHLW 111155Z AUTO VRB06KT 9999 NCD 28/13 Q1023 BLU NOSIG
13:25
V
27 °C 10 km+ - Var Var 5 kt METAR EHLW 111125Z AUTO VRB05KT 9999 NCD 27/13 Q1023 BLU NOSIG
12:55
V
27 °C 10 km+ - Var Var 6 kt METAR EHLW 111055Z AUTO VRB06KT 9999 NCD 27/13 Q1023 BLU NOSIG
12:25
V
27 °C 10 km+ - Var Var 5 kt METAR EHLW 111025Z AUTO VRB05KT 9999 NCD 27/13 Q1023 BLU NOSIG
11:55
V
26 °C 10 km+ - 070° 070° 5 kt METAR EHLW 110955Z AUTO 07005KT 350V160 9999 NCD 26/16 Q1024 BLU NOSIG
11:25
V
25 °C 10 km+ - Var Var 4 kt METAR EHLW 110925Z AUTO VRB04KT 9999 NCD 25/16 Q1024 BLU NOSIG
10:55
V
24 °C 10 km+ - Var Var 4 kt METAR EHLW 110855Z AUTO VRB04KT 9999 NCD 24/16 Q1024 BLU NOSIG
10:25
V
23 °C 10 km+ - 050° 050° 5 kt METAR EHLW 110825Z AUTO 05005KT 360V120 9999 NCD 23/17 Q1024 BLU NOSIG
09:55
V
22 °C 10 km+ - 050° 050° 5 kt METAR EHLW 110755Z AUTO 05005KT 350V100 9999 NCD 22/17 Q1024 BLU NOSIG
09:25
V
20 °C 10 km+ - 070° 070° 4 kt METAR EHLW 110725Z AUTO 07004KT 360V110 9999 NCD 20/17 Q1024 BLU NOSIG
08:55
V
19 °C 10 km+ - 060° 060° 5 kt METAR EHLW 110655Z AUTO 06005KT 330V140 9999 NCD 19/17 Q1024 BLU NOSIG
08:25
V
18 °C 9 km - 060° 060° 5 kt METAR EHLW 110625Z AUTO 06005KT 340V130 9000 BR FEW015CB 18/16 Q1024 BLU NOSIG
08:07
V
18 °C 9 km - 060° 060° 5 kt METAR EHLW 110607Z AUTO 06005KT 360V140 9000 BR FEW015CB 18/16 Q1024 BLU NOSIG
07:55
V
18 °C 9 km - 080° 080° 4 kt METAR EHLW 110555Z AUTO 08004KT 010V180 9000 BR FEW015CB 18/16 Q1024 BLU NOSIG
07:25
M
16 °C 6 km - 060° 060° 4 kt METAR EHLW 110525Z AUTO 06004KT 330V140 6000 BR FEW015CB 16/15 Q1024 WHT
06:55
M
15 °C 6 km - 060° 060° 3 kt METAR EHLW 110455Z AUTO 06003KT 360V130 6000 BR FEW015CB 15/15 Q1024 WHT
06:34
M
15 °C 7 km - 060° 060° 3 kt METAR EHLW 110434Z AUTO 06003KT 350V140 7000 BR FEW015CB 15/14 Q1024 WHT
06:29
V
15 °C 8 km - 070° 070° 3 kt METAR EHLW 110429Z AUTO 07003KT 360V140 8000 BR FEW015CB 15/14 Q1024 BLU
06:25
M
15 °C 7 km - 060° 060° 3 kt METAR EHLW 110425Z AUTO 06003KT 350V140 7000 BR FEW015CB 15/14 Q1024 WHT
06:17
M
15 °C 7 km - 060° 060° 3 kt METAR EHLW 110417Z AUTO 06003KT 330V140 7000 BR FEW015CB 15/14 Q1024 WHT
06:01
V
15 °C 8 km - Var Var 4 kt METAR EHLW 110401Z AUTO VRB04KT 8000 BR FEW015CB 15/14 Q1024 BLU
05:57
M
15 °C 7 km - 070° 070° 4 kt METAR EHLW 110357Z AUTO 07004KT 020V170 7000 BR FEW015CB 15/14 Q1024 WHT
05:55
V
15 °C 8 km - Var Var 4 kt METAR EHLW 110355Z AUTO VRB04KT 8000 BR FEW015CB 15/14 Q1024 BLU
05:41
V
15 °C 9 km - 070° 070° 6 kt METAR EHLW 110341Z AUTO 07006KT 350V160 9000 BR NCD 15/14 Q1024 BLU
05:25
M
16 °C 6 km - 070° 070° 7 kt METAR EHLW 110325Z AUTO 07007KT 360V170 6000 BR NCD 16/15 Q1024 WHT
04:55
M
15 °C 7 km - Var Var 6 kt METAR EHLW 110255Z AUTO VRB06KT 7000 BR NCD 15/14 Q1024 WHT
04:39
V
16 °C 8 km - Var Var 6 kt METAR EHLW 110239Z AUTO VRB06KT 8000 BR NCD 16/15 Q1024 BLU
04:25
V
16 °C 8 km - Var Var 7 kt METAR EHLW 110225Z AUTO VRB07KT 8000 BR NCD 16/15 Q1024 BLU
04:20
V
16 °C 8 km - Var Var 7 kt METAR EHLW 110220Z AUTO VRB07KT 8000 BR NCD 16/15 Q1024 BLU
03:55
M
16 °C 5 km - 070° 070° 7 kt METAR EHLW 110155Z AUTO 07007KT 360V140 5000 BR NCD 16/15 Q1024 WHT
03:25
M
16 °C 7 km - 070° 070° 6 kt METAR EHLW 110125Z AUTO 07006KT 350V130 7000 BR NCD 16/15 Q1024 WHT
03:14
M
16 °C 7 km - 070° 070° 6 kt METAR EHLW 110114Z AUTO 07006KT 360V140 7000 BR NCD 16/15 Q1024 WHT
02:59
V
16 °C 8 km - Var Var 7 kt METAR EHLW 110059Z AUTO VRB07KT 8000 BR NCD 16/15 Q1024 BLU
02:55
M
16 °C 7 km - 070° 070° 7 kt METAR EHLW 110055Z AUTO 07007KT 350V130 7000 BR NCD 16/15 Q1024 WHT
02:42
M
17 °C 7 km - Var Var 7 kt METAR EHLW 110042Z AUTO VRB07KT 7000 BR NCD 17/16 Q1024 WHT
02:25
M
17 °C 7 km - 070° 070° 7 kt METAR EHLW 110025Z AUTO 07007KT 340V150 7000 BR NCD 17/16 Q1024 WHT RMK CB INFO NOT AVBL
02:14
M
17 °C 7 km - 070° 070° 7 kt METAR EHLW 110014Z AUTO 07007KT 360V140 7000 BR NCD 17/16 Q1024 WHT
02:08
V
17 °C 8 km - 070° 070° 7 kt METAR EHLW 110008Z AUTO 07007KT 360V170 8000 BR NCD 17/16 Q1024 BLU
01:55
V
17 °C 8 km - 070° 070° 7 kt METAR EHLW 102355Z AUTO 07007KT 340V150 8000 BR NCD 17/16 Q1024 BLU
01:28
M
16 °C 7 km - Var Var 6 kt METAR EHLW 102328Z AUTO VRB06KT 7000 BR NCD 16/15 Q1024 WHT
01:25
V
16 °C 9 km - Var Var 6 kt METAR EHLW 102325Z AUTO VRB06KT 9000 BR NCD 16/15 Q1025 BLU
00:55
V
16 °C 10 km+ - 050° 050° 7 kt METAR EHLW 102255Z AUTO 05007KT 360V100 9999 NCD 16/15 Q1025 BLU
00:25
V
16 °C 10 km+ - 060° 060° 6 kt METAR EHLW 102225Z AUTO 06006KT 360V120 9999 NCD 16/15 Q1025 BLU

10 de agosto de 2022

Hora Código Clima Temp. Visibilidade Tecto Vento METAR/SPECI
23:55
V
16 °C 10 km+ - 050° 050° 7 kt METAR EHLW 102155Z AUTO 05007KT 360V100 9999 NCD 16/15 Q1025 BLU
23:25
V
16 °C 10 km+ - 050° 050° 7 kt METAR EHLW 102125Z AUTO 05007KT 350V110 9999 NCD 16/15 Q1025 BLU
22:55
V
16 °C 10 km+ - 050° 050° 7 kt METAR EHLW 102055Z AUTO 05007KT 360V100 9999 NCD 16/15 Q1025 BLU
22:25
V
17 °C 10 km+ - 050° 050° 8 kt METAR EHLW 102025Z AUTO 05008KT 360V100 9999 NCD 17/15 Q1025 BLU
21:55
V
18 °C 10 km+ - 050° 050° 8 kt METAR EHLW 101955Z AUTO 05008KT 010V100 9999 NCD 18/16 Q1025 BLU
21:25
V
18 °C 10 km+ - 050° 050° 8 kt METAR EHLW 101925Z AUTO 05008KT 360V090 9999 NCD 18/16 Q1025 BLU
20:55
V
19 °C 10 km+ - 050° 050° 8 kt METAR EHLW 101855Z AUTO 05008KT 360V100 9999 NCD 19/16 Q1025 BLU
20:25
V
20 °C 10 km+ - 050° 050° 9 kt METAR EHLW 101825Z AUTO 05009KT 340V100 9999 NCD 20/16 Q1025 BLU
19:55
V
21 °C 10 km+ - 050° 050° 10 kt METAR EHLW 101755Z AUTO 05010KT 360V090 9999 NCD 21/16 Q1025 BLU
19:25
V
22 °C 10 km+ - 050° 050° 12 kt METAR EHLW 101725Z AUTO 05012KT 360V080 9999 NCD 22/16 Q1025 BLU
18:55
V
22 °C 10 km+ - 050° 050° 12 kt METAR EHLW 101655Z AUTO 05012KT 360V090 9999 NCD 22/17 Q1025 BLU
18:25
V
23 °C 10 km+ - 050° 050° 12 kt METAR EHLW 101625Z AUTO 05012KT 340V090 9999 NCD 23/17 Q1025 BLU
17:55
V
24 °C 10 km+ - 030° 030° 13 kt METAR EHLW 101555Z AUTO 03013KT 360V070 9999 NCD 24/18 Q1025 BLU
17:25
V
24 °C 10 km+ - 040° 040° 10 kt METAR EHLW 101525Z AUTO 04010KT 360V110 9999 NCD 24/17 Q1025 BLU
16:55
V
25 °C 10 km+ - 040° 040° 11 kt METAR EHLW 101455Z AUTO 04011KT 360V090 9999 NCD 25/18 Q1025 BLU
16:25
V
25 °C 10 km+ - 060° 060° 9 kt METAR EHLW 101425Z AUTO 06009KT 340V150 9999 NCD 25/18 Q1026 BLU
16:00
V
25 °C 10 km+ - 050° 050° 8 kt METAR EHLW 101400Z AUTO 05008KT 350V120 9999 NCD 25/17 Q1026 BLU
15:55
V
25 °C 10 km+ - Var Var 8 kt METAR EHLW 101355Z AUTO VRB08KT 9999 NCD 25/17 Q1026 BLU NOSIG
15:25
V
25 °C 10 km+ - Var Var 8 kt METAR EHLW 101325Z AUTO VRB08KT 9999 NCD 25/17 Q1026 BLU NOSIG
14:55
V
25 °C 10 km+ - 050° 050° 6 kt METAR EHLW 101255Z AUTO 05006KT 350V100 9999 NCD 25/17 Q1026 BLU NOSIG
14:25
V
25 °C 10 km+ - Var Var 6 kt METAR EHLW 101225Z AUTO VRB06KT 9999 NCD 25/17 Q1027 BLU NOSIG
13:55
V
25 °C 10 km+ - Var Var 7 kt METAR EHLW 101155Z AUTO VRB07KT 9999 NCD 25/16 Q1027 BLU NOSIG
13:25
V
24 °C 10 km+ - 070° 070° 7 kt METAR EHLW 101125Z AUTO 07007KT 350V130 9999 NCD 24/17 Q1027 BLU NOSIG
12:55
V
24 °C 10 km+ - Var Var 6 kt METAR EHLW 101055Z AUTO VRB06KT 9999 NCD 24/17 Q1027 BLU NOSIG
12:25
V
23 °C 10 km+ - Var Var 8 kt METAR EHLW 101025Z AUTO VRB08KT 9999 NCD 23/17 Q1027 BLU NOSIG
11:55
V
23 °C 10 km+ - 070° 070° 7 kt METAR EHLW 100955Z AUTO 07007KT 350V160 9999 NCD 23/17 Q1028 BLU NOSIG
11:25
V
22 °C 10 km+ - 050° 050° 9 kt METAR EHLW 100925Z AUTO 05009KT 340V120 9999 NCD 22/17 Q1028 BLU NOSIG
10:55
V
22 °C 10 km+ - 050° 050° 9 kt METAR EHLW 100855Z AUTO 05009KT 360V120 9999 NCD 22/17 Q1028 BLU NOSIG
10:25
V
21 °C 10 km+ - Var Var 9 kt METAR EHLW 100825Z AUTO VRB09KT 9999 NCD 21/17 Q1028 BLU NOSIG
09:55
V
20 °C 10 km+ 39.000 ft 060° 060° 9 kt METAR EHLW 100755Z AUTO 06009KT 350V120 9999 BKN390 20/17 Q1028 BLU NOSIG
09:25
V
20 °C 10 km+ 40.000 ft 060° 060° 9 kt METAR EHLW 100725Z AUTO 06009KT 350V130 9999 BKN400 20/17 Q1028 BLU NOSIG
08:55
V
19 °C 10 km+ - 060° 060° 9 kt METAR EHLW 100655Z AUTO 06009KT 350V110 9999 NCD 19/17 Q1028 BLU NOSIG
08:25
V
17 °C 10 km+ 38.000 ft 060° 060° 6 kt METAR EHLW 100625Z AUTO 06006KT 340V110 9999 OVC380 17/16 Q1028 BLU NOSIG
07:55
V
15 °C 8 km - 050° 050° 4 kt METAR EHLW 100555Z AUTO 05004KT 360V120 8000 BR NCD 15/15 Q1028 BLU NOSIG
07:36
V
14 °C 10 km+ - 050° 050° 3 kt METAR EHLW 100536Z AUTO 05003KT 010V100 9999 NCD 14/14 Q1028 BLU NOSIG
07:25
V
14 °C 10 km+ - 060° 060° 4 kt METAR EHLW 100525Z AUTO 06004KT 350V150 9999 NCD 14/14 Q1028 BLU NOSIG
07:13
M
14 °C 5 km - Var Var 4 kt METAR EHLW 100513Z AUTO VRB04KT 5000 BR NCD 14/14 Q1028 WHT
07:06
I
14 °C 4,6 km - Var Var 5 kt METAR EHLW 100506Z AUTO VRB05KT 4600 BR FEW400 14/14 Q1028 GRN
07:02
M
13 °C 5 km - 060° 060° 5 kt METAR EHLW 100502Z AUTO 06005KT 350V140 5000 BR SCT390 13/13 Q1028 WHT
06:55
V
13 °C 8 km 39.000 ft 050° 050° 4 kt METAR EHLW 100455Z AUTO 05004KT 360V120 8000 BR BKN390 13/13 Q1028 BLU
06:44
L
13 °C 1 km - 050° 050° 5 kt METAR EHLW 100444Z AUTO 05005KT 350V130 1000 BR FEW390 13/13 Q1028 AMB
06:26
L
13 °C 350 m 39.000 ft 060° 060° 5 kt METAR EHLW 100426Z AUTO 06005KT 350V140 0350 FG BKN390 13/13 Q1028 RED
06:25
L
13 °C 900 m 39.000 ft 070° 070° 4 kt METAR EHLW 100425Z AUTO 07004KT 350V140 0900 FG OVC390 13/13 Q1028 AMB
06:07
I
12 °C 4,5 km - 040° 040° 4 kt METAR EHLW 100407Z AUTO 04004KT 010V100 4500 BR NCD 12/12 Q1028 GRN
05:59
M
13 °C 5 km - 040° 040° 4 kt METAR EHLW 100359Z AUTO 04004KT 360V090 5000 BR NCD 13/13 Q1028 WHT
05:55
I
12 °C 1,6 km - 040° 040° 4 kt METAR EHLW 100355Z AUTO 04004KT 360V080 1600 BR NCD 12/11 Q1028 YLO
05:40
M
11 °C 7 km - 040° 040° 3 kt METAR EHLW 100340Z AUTO 04003KT 010V100 7000 BR NCD 11/11 Q1028 WHT
05:27
M
12 °C 6 km - 050° 050° 4 kt METAR EHLW 100327Z AUTO 05004KT 010V110 6000 BR NCD 12/12 Q1028 WHT
05:25
V
13 °C 10 km+ - 050° 050° 4 kt METAR EHLW 100325Z AUTO 05004KT 010V120 9999 SCT390 13/13 Q1028 BLU
05:11
L
13 °C 550 m 30.000 ft 060° 060° 5 kt METAR EHLW 100311Z AUTO 06005KT 010V160 0550 FG BKN300 OVC390 13/13 Q1028 RED
05:10
M
13 °C 5 km 30.000 ft 060° 060° 4 kt METAR EHLW 100310Z AUTO 06004KT 020V160 5000 BR OVC300 13/13 Q1028 WHT
05:03
V
13 °C 10 km+ 30.000 ft 050° 050° 5 kt METAR EHLW 100303Z AUTO 05005KT 020V080 9999 OVC300 13/13 Q1028 BLU
04:59
I
13 °C 2,5 km 30.000 ft 040° 040° 4 kt METAR EHLW 100259Z AUTO 04004KT 2500 BR OVC300 13/12 Q1028 YLO
04:55
L
13 °C 550 m 31.000 ft 050° 050° 4 kt METAR EHLW 100255Z AUTO 05004KT 0550 FG OVC310 13/12 Q1028 RED
04:42
L
13 °C 400 m 32.000 ft 070° 070° 4 kt METAR EHLW 100242Z AUTO 07004KT 360V090 0400 FG BKN320 BKN380 13/13 Q1028 RED
04:40
I
14 °C 1,6 km 32.000 ft 070° 070° 4 kt METAR EHLW 100240Z AUTO 07004KT 360V090 1600 BR OVC320 14/13 Q1028 YLO
04:32
I
13 °C 2,9 km 32.000 ft 070° 070° 3 kt METAR EHLW 100232Z AUTO 07003KT 340V130 2900 BR BKN320 OVC370 13/13 Q1028 YLO
04:25
M
13 °C 6 km 32.000 ft 060° 060° 3 kt METAR EHLW 100225Z AUTO 06003KT 350V130 6000 BR OVC320 13/13 Q1028 WHT
04:09
M
13 °C 7 km 33.000 ft 050° 050° 3 kt METAR EHLW 100209Z AUTO 05003KT 010V090 7000 BR OVC330 13/13 Q1028 WHT
03:59
M
13 °C 7 km 37.000 ft 050° 050° 4 kt METAR EHLW 100159Z AUTO 05004KT 020V090 7000 BR OVC370 13/13 Q1028 WHT
03:55
V
12 °C 8 km 37.000 ft 040° 040° 3 kt METAR EHLW 100155Z AUTO 04003KT 020V080 8000 BR OVC370 12/12 Q1028 BLU
03:44
V
12 °C 8 km 36.000 ft 040° 040° 4 kt METAR EHLW 100144Z AUTO 04004KT 010V080 8000 BR OVC360 12/12 Q1028 BLU
03:41
M
13 °C 7 km 38.000 ft 050° 050° 4 kt METAR EHLW 100141Z AUTO 05004KT 010V080 7000 BR OVC380 13/13 Q1028 WHT
03:30
V
14 °C 9 km 38.000 ft 060° 060° 4 kt METAR EHLW 100130Z AUTO 06004KT 010V150 9000 BR OVC380 14/13 Q1028 BLU
03:29
M
14 °C 5 km 38.000 ft 070° 070° 4 kt METAR EHLW 100129Z AUTO 07004KT 020V150 5000 BR OVC380 14/13 Q1028 WHT
03:10
I
14 °C 3,6 km 39.000 ft 070° 070° 5 kt METAR EHLW 100110Z AUTO 07005KT 360V140 3600 BR BKN390 14/13 Q1028 YLO
02:55
M
14 °C 6 km - 080° 080° 4 kt METAR EHLW 100055Z AUTO 08004KT 020V160 6000 BR SCT420 14/13 Q1028 WHT
02:42
M
13 °C 6 km - 060° 060° 4 kt METAR EHLW 100042Z AUTO 06004KT 340V140 6000 BR NCD 13/13 Q1028 WHT
02:29
M
13 °C 6 km - 050° 050° 4 kt METAR EHLW 100029Z AUTO 05004KT 350V110 6000 BR NCD 13/13 Q1028 WHT
02:25
I
13 °C 3,6 km - 050° 050° 4 kt METAR EHLW 100025Z AUTO 05004KT 350V110 3600 BR NCD 13/13 Q1029 YLO RMK CB INFO NOT AVBL
02:20
I
13 °C 3,9 km - 060° 060° 4 kt METAR EHLW 100020Z AUTO 06004KT 350V130 3900 BR NCD 13/13 Q1029 GRN
02:06
V
11 °C 9 km - 050° 050° 3 kt METAR EHLW 100006Z AUTO 05003KT 350V090 9000 BR FEW320 11/11 Q1029 BLU
01:59
M
12 °C 7 km 32.000 ft 060° 060° 3 kt METAR EHLW 092359Z AUTO 06003KT 330V130 7000 BR BKN320 12/12 Q1029 WHT
01:55
V
13 °C 10 km+ 32.000 ft 060° 060° 3 kt METAR EHLW 092355Z AUTO 06003KT 330V130 9999 OVC320 13/12 Q1029 BLU
01:25
V
12 °C 10 km+ - 040° 040° 4 kt METAR EHLW 092325Z AUTO 04004KT 020V080 9999 NCD 12/11 Q1029 BLU
00:55
V
12 °C 10 km+ - 060° 060° 3 kt METAR EHLW 092255Z AUTO 06003KT 040V120 9999 NCD 12/12 Q1029 BLU
00:25
V
13 °C 10 km+ - 040° 040° 3 kt METAR EHLW 092225Z AUTO 04003KT 360V070 9999 FEW400 13/12 Q1029 BLU

9 de agosto de 2022

Hora Código Clima Temp. Visibilidade Tecto Vento METAR/SPECI
23:55
V
14 °C 10 km+ - 060° 060° 4 kt METAR EHLW 092155Z AUTO 06004KT 360V170 9999 NCD 14/12 Q1029 BLU
23:25
V
15 °C 10 km+ - 060° 060° 5 kt METAR EHLW 092125Z AUTO 06005KT 020V090 9999 NCD 15/12 Q1029 BLU
22:55
V
14 °C 10 km+ 36.000 ft 070° 070° 5 kt METAR EHLW 092055Z AUTO 07005KT 360V130 9999 OVC360 14/12 Q1029 BLU
22:25
V
15 °C 10 km+ 37.000 ft 050° 050° 4 kt METAR EHLW 092025Z AUTO 05004KT 350V140 9999 OVC370 15/12 Q1029 BLU
21:55
V
15 °C 10 km+ 38.000 ft 040° 040° 5 kt METAR EHLW 091955Z AUTO 04005KT 010V070 9999 OVC380 15/12 Q1029 BLU
21:25
V
15 °C 10 km+ 40.000 ft 030° 030° 6 kt METAR EHLW 091925Z AUTO 03006KT 010V070 9999 OVC400 15/12 Q1029 BLU
20:55
V
17 °C 10 km+ 40.000 ft 030° 030° 5 kt METAR EHLW 091855Z AUTO 03005KT 360V070 9999 OVC400 17/13 Q1029 BLU
20:25
V
18 °C 10 km+ - 050° 050° 6 kt METAR EHLW 091825Z AUTO 05006KT 350V080 9999 NCD 18/13 Q1029 BLU
19:55
V
19 °C 10 km+ - 040° 040° 9 kt METAR EHLW 091755Z AUTO 04009KT 360V080 9999 FEW380 19/13 Q1029 BLU
19:25
V
20 °C 10 km+ - 040° 040° 9 kt METAR EHLW 091725Z AUTO 04009KT 350V110 9999 FEW390 20/13 Q1029 BLU
18:55
V
20 °C 10 km+ - 030° 030° 10 kt METAR EHLW 091655Z AUTO 03010KT 350V070 9999 NCD 20/13 Q1029 BLU
18:25
V
21 °C 10 km+ - 030° 030° 10 kt METAR EHLW 091625Z AUTO 03010KT 350V060 9999 SCT380 21/12 Q1029 BLU
17:55
V
21 °C 10 km+ - 020° 020° 9 kt METAR EHLW 091555Z AUTO 02009KT 350V070 9999 FEW370 21/12 Q1029 BLU
17:25
V
22 °C 10 km+ - 040° 040° 10 kt METAR EHLW 091525Z AUTO 04010KT 340V070 9999 NCD 22/13 Q1029 BLU
16:55
V
22 °C 10 km+ - 030° 030° 9 kt METAR EHLW 091455Z AUTO 03009KT 350V050 9999 FEW370 22/13 Q1029 BLU
Dados mais antigos

Nós e terceiros acompanhamos seu comportamento na internet em nosso site com cookies. Se você continuar, nós assumimos que você concorda com nossa política de cookies. Saiba mais